sensor_id;sensor_type;location;lat;lon;timestamp;temperature;humidity
6098;DHT22;3077;50.922;6.584;2023-01-08T00:00:56;11.50;99.90
6098;DHT22;3077;50.922;6.584;2023-01-08T00:03:22;11.30;99.90
6098;DHT22;3077;50.922;6.584;2023-01-08T00:05:48;11.50;99.90
6098;DHT22;3077;50.922;6.584;2023-01-08T00:08:14;11.50;99.90
6098;DHT22;3077;50.922;6.584;2023-01-08T00:10:40;11.40;99.90
6098;DHT22;3077;50.922;6.584;2023-01-08T00:13:06;11.40;99.90
6098;DHT22;3077;50.922;6.584;2023-01-08T00:15:35;11.40;99.90
6098;DHT22;3077;50.922;6.584;2023-01-08T00:18:00;11.40;99.90
6098;DHT22;3077;50.922;6.584;2023-01-08T00:20:26;11.40;99.90
6098;DHT22;3077;50.922;6.584;2023-01-08T00:22:52;11.40;99.90
6098;DHT22;3077;50.922;6.584;2023-01-08T00:25:18;11.40;99.90
6098;DHT22;3077;50.922;6.584;2023-01-08T00:27:44;11.40;99.90
6098;DHT22;3077;50.922;6.584;2023-01-08T00:30:11;11.40;99.90
6098;DHT22;3077;50.922;6.584;2023-01-08T00:32:37;11.40;99.90
6098;DHT22;3077;50.922;6.584;2023-01-08T00:35:02;11.50;99.90
6098;DHT22;3077;50.922;6.584;2023-01-08T00:37:29;11.50;99.90
6098;DHT22;3077;50.922;6.584;2023-01-08T00:39:55;11.60;96.10
6098;DHT22;3077;50.922;6.584;2023-01-08T00:42:20;11.50;96.80
6098;DHT22;3077;50.922;6.584;2023-01-08T00:44:46;11.60;99.90
6098;DHT22;3077;50.922;6.584;2023-01-08T00:47:11;11.50;99.90
6098;DHT22;3077;50.922;6.584;2023-01-08T00:49:37;11.50;99.70
6098;DHT22;3077;50.922;6.584;2023-01-08T00:52:03;11.60;98.90
6098;DHT22;3077;50.922;6.584;2023-01-08T00:54:29;11.60;96.30
6098;DHT22;3077;50.922;6.584;2023-01-08T00:56:54;11.60;99.90
6098;DHT22;3077;50.922;6.584;2023-01-08T00:59:20;11.60;99.90
6098;DHT22;3077;50.922;6.584;2023-01-08T01:01:47;11.50;99.90
6098;DHT22;3077;50.922;6.584;2023-01-08T01:04:13;11.50;99.90
6098;DHT22;3077;50.922;6.584;2023-01-08T01:06:40;11.60;99.90
6098;DHT22;3077;50.922;6.584;2023-01-08T01:09:06;11.60;99.90
6098;DHT22;3077;50.922;6.584;2023-01-08T01:11:32;11.60;99.90
6098;DHT22;3077;50.922;6.584;2023-01-08T01:13:58;11.60;99.90
6098;DHT22;3077;50.922;6.584;2023-01-08T01:16:24;11.60;99.90
6098;DHT22;3077;50.922;6.584;2023-01-08T01:18:49;11.60;99.90
6098;DHT22;3077;50.922;6.584;2023-01-08T01:21:24;11.60;99.90
6098;DHT22;3077;50.922;6.584;2023-01-08T01:23:53;11.60;99.90
6098;DHT22;3077;50.922;6.584;2023-01-08T01:26:20;11.50;99.90
6098;DHT22;3077;50.922;6.584;2023-01-08T01:28:47;11.50;99.90
6098;DHT22;3077;50.922;6.584;2023-01-08T01:31:13;11.50;99.90
6098;DHT22;3077;50.922;6.584;2023-01-08T01:33:39;11.50;99.90
6098;DHT22;3077;50.922;6.584;2023-01-08T01:36:05;11.50;99.90
6098;DHT22;3077;50.922;6.584;2023-01-08T01:38:32;11.50;99.90
6098;DHT22;3077;50.922;6.584;2023-01-08T01:40:57;11.60;99.90
6098;DHT22;3077;50.922;6.584;2023-01-08T01:43:41;11.60;99.90
6098;DHT22;3077;50.922;6.584;2023-01-08T01:48:41;11.50;99.90
6098;DHT22;3077;50.922;6.584;2023-01-08T01:51:07;11.60;99.90
6098;DHT22;3077;50.922;6.584;2023-01-08T01:53:34;11.50;99.90
6098;DHT22;3077;50.922;6.584;2023-01-08T01:56:02;11.60;99.90
6098;DHT22;3077;50.922;6.584;2023-01-08T01:58:30;11.50;99.90
6098;DHT22;3077;50.922;6.584;2023-01-08T02:01:00;11.50;99.90
6098;DHT22;3077;50.922;6.584;2023-01-08T02:03:32;11.60;99.90
6098;DHT22;3077;50.922;6.584;2023-01-08T02:09:01;11.60;99.90
6098;DHT22;3077;50.922;6.584;2023-01-08T02:15:01;11.50;99.90
6098;DHT22;3077;50.922;6.584;2023-01-08T02:17:48;11.50;99.90
6098;DHT22;3077;50.922;6.584;2023-01-08T02:21:09;11.50;99.90
6098;DHT22;3077;50.922;6.584;2023-01-08T02:23:40;11.40;99.90
6098;DHT22;3077;50.922;6.584;2023-01-08T02:26:25;11.50;99.90
6098;DHT22;3077;50.922;6.584;2023-01-08T02:31:20;11.40;99.90
6098;DHT22;3077;50.922;6.584;2023-01-08T02:33:46;11.40;99.90
6098;DHT22;3077;50.922;6.584;2023-01-08T02:36:26;11.40;99.90
6098;DHT22;3077;50.922;6.584;2023-01-08T02:42:05;11.40;99.90
6098;DHT22;3077;50.922;6.584;2023-01-08T02:47:08;11.30;99.90
6098;DHT22;3077;50.922;6.584;2023-01-08T02:49:38;11.20;1.00
6098;DHT22;3077;50.922;6.584;2023-01-08T02:52:07;11.20;1.00
6098;DHT22;3077;50.922;6.584;2023-01-08T02:54:35;11.10;1.00
6098;DHT22;3077;50.922;6.584;2023-01-08T02:57:12;11.20;99.90
6098;DHT22;3077;50.922;6.584;2023-01-08T02:59:39;11.20;99.90
6098;DHT22;3077;50.922;6.584;2023-01-08T03:02:07;11.20;99.90
6098;DHT22;3077;50.922;6.584;2023-01-08T03:04:43;11.30;99.90
6098;DHT22;3077;50.922;6.584;2023-01-08T03:07:11;11.30;99.90
6098;DHT22;3077;50.922;6.584;2023-01-08T03:09:36;11.30;99.90
6098;DHT22;3077;50.922;6.584;2023-01-08T03:12:14;11.30;99.90
6098;DHT22;3077;50.922;6.584;2023-01-08T03:14:54;11.30;99.90
6098;DHT22;3077;50.922;6.584;2023-01-08T03:17:25;11.30;99.90
6098;DHT22;3077;50.922;6.584;2023-01-08T03:19:58;11.30;99.90
6098;DHT22;3077;50.922;6.584;2023-01-08T03:22:24;11.30;99.90
6098;DHT22;3077;50.922;6.584;2023-01-08T03:24:52;11.30;99.90
6098;DHT22;3077;50.922;6.584;2023-01-08T03:27:23;11.30;99.90
6098;DHT22;3077;50.922;6.584;2023-01-08T03:29:51;11.30;99.90
6098;DHT22;3077;50.922;6.584;2023-01-08T03:32:19;11.30;99.90
6098;DHT22;3077;50.922;6.584;2023-01-08T03:34:48;11.30;99.90
6098;DHT22;3077;50.922;6.584;2023-01-08T03:37:16;11.30;99.90
6098;DHT22;3077;50.922;6.584;2023-01-08T03:39:46;11.30;99.90
6098;DHT22;3077;50.922;6.584;2023-01-08T03:42:15;11.30;99.90
6098;DHT22;3077;50.922;6.584;2023-01-08T03:44:42;11.40;99.90
6098;DHT22;3077;50.922;6.584;2023-01-08T03:47:09;11.40;83.20
6098;DHT22;3077;50.922;6.584;2023-01-08T03:49:37;11.40;99.90
6098;DHT22;3077;50.922;6.584;2023-01-08T03:52:03;11.40;99.90
6098;DHT22;3077;50.922;6.584;2023-01-08T03:54:31;11.40;24.20
6098;DHT22;3077;50.922;6.584;2023-01-08T03:56:57;11.40;69.60
6098;DHT22;3077;50.922;6.584;2023-01-08T03:59:22;11.40;3.80
6098;DHT22;3077;50.922;6.584;2023-01-08T04:01:48;11.40;1.00
6098;DHT22;3077;50.922;6.584;2023-01-08T04:04:14;11.40;1.00
6098;DHT22;3077;50.922;6.584;2023-01-08T04:06:40;11.40;1.00
6098;DHT22;3077;50.922;6.584;2023-01-08T04:09:05;11.40;1.00
6098;DHT22;3077;50.922;6.584;2023-01-08T04:11:31;11.50;1.00
6098;DHT22;3077;50.922;6.584;2023-01-08T04:13:57;11.50;1.00
6098;DHT22;3077;50.922;6.584;2023-01-08T04:16:23;11.50;1.00
6098;DHT22;3077;50.922;6.584;2023-01-08T04:18:48;11.50;1.00
6098;DHT22;3077;50.922;6.584;2023-01-08T04:21:14;11.50;1.00
6098;DHT22;3077;50.922;6.584;2023-01-08T04:23:39;11.40;1.00
6098;DHT22;3077;50.922;6.584;2023-01-08T04:26:08;11.40;1.00
6098;DHT22;3077;50.922;6.584;2023-01-08T04:28:35;11.40;1.00
6098;DHT22;3077;50.922;6.584;2023-01-08T04:31:08;11.40;1.00
6098;DHT22;3077;50.922;6.584;2023-01-08T04:33:34;11.50;99.90
6098;DHT22;3077;50.922;6.584;2023-01-08T04:35:59;11.50;99.90
6098;DHT22;3077;50.922;6.584;2023-01-08T04:38:25;11.50;1.00
6098;DHT22;3077;50.922;6.584;2023-01-08T04:40:56;11.50;1.00
6098;DHT22;3077;50.922;6.584;2023-01-08T04:43:22;11.60;1.00
6098;DHT22;3077;50.922;6.584;2023-01-08T04:45:48;11.60;1.00
6098;DHT22;3077;50.922;6.584;2023-01-08T04:48:14;11.60;1.00
6098;DHT22;3077;50.922;6.584;2023-01-08T04:50:39;11.60;1.00
6098;DHT22;3077;50.922;6.584;2023-01-08T04:53:05;11.50;1.00
6098;DHT22;3077;50.922;6.584;2023-01-08T04:55:30;11.50;60.00
6098;DHT22;3077;50.922;6.584;2023-01-08T04:57:56;11.50;1.00
6098;DHT22;3077;50.922;6.584;2023-01-08T05:00:21;11.40;1.00
6098;DHT22;3077;50.922;6.584;2023-01-08T05:02:47;11.40;1.00
6098;DHT22;3077;50.922;6.584;2023-01-08T05:05:12;11.40;1.00
6098;DHT22;3077;50.922;6.584;2023-01-08T05:07:38;11.30;1.00
6098;DHT22;3077;50.922;6.584;2023-01-08T05:10:04;11.40;1.00
6098;DHT22;3077;50.922;6.584;2023-01-08T05:12:30;11.30;99.90
6098;DHT22;3077;50.922;6.584;2023-01-08T05:14:55;11.30;99.90
6098;DHT22;3077;50.922;6.584;2023-01-08T05:17:21;11.30;1.00
6098;DHT22;3077;50.922;6.584;2023-01-08T05:19:46;11.20;54.90
6098;DHT22;3077;50.922;6.584;2023-01-08T05:22:12;11.10;99.90
6098;DHT22;3077;50.922;6.584;2023-01-08T05:24:37;11.20;99.90
6098;DHT22;3077;50.922;6.584;2023-01-08T05:27:03;11.10;99.90
6098;DHT22;3077;50.922;6.584;2023-01-08T05:29:28;11.10;99.90
6098;DHT22;3077;50.922;6.584;2023-01-08T05:31:54;11.10;99.90
6098;DHT22;3077;50.922;6.584;2023-01-08T05:34:20;11.00;1.00
6098;DHT22;3077;50.922;6.584;2023-01-08T05:36:45;11.00;99.90
6098;DHT22;3077;50.922;6.584;2023-01-08T05:39:11;11.10;99.90
6098;DHT22;3077;50.922;6.584;2023-01-08T05:41:36;11.10;1.00
6098;DHT22;3077;50.922;6.584;2023-01-08T05:44:02;11.10;99.90
6098;DHT22;3077;50.922;6.584;2023-01-08T05:46:27;11.10;99.90
6098;DHT22;3077;50.922;6.584;2023-01-08T05:48:53;11.10;99.90
6098;DHT22;3077;50.922;6.584;2023-01-08T05:51:18;11.10;99.90
6098;DHT22;3077;50.922;6.584;2023-01-08T05:53:44;11.00;99.90
6098;DHT22;3077;50.922;6.584;2023-01-08T05:56:11;10.90;99.90
6098;DHT22;3077;50.922;6.584;2023-01-08T05:58:37;11.00;99.90
6098;DHT22;3077;50.922;6.584;2023-01-08T06:01:12;10.90;99.90
6098;DHT22;3077;50.922;6.584;2023-01-08T06:03:38;10.90;99.90
6098;DHT22;3077;50.922;6.584;2023-01-08T06:06:05;10.90;99.90
6098;DHT22;3077;50.922;6.584;2023-01-08T06:08:31;10.90;99.90
6098;DHT22;3077;50.922;6.584;2023-01-08T06:11:01;10.90;99.90
6098;DHT22;3077;50.922;6.584;2023-01-08T06:13:27;10.90;99.90
6098;DHT22;3077;50.922;6.584;2023-01-08T06:15:53;10.80;99.90
6098;DHT22;3077;50.922;6.584;2023-01-08T06:18:18;10.80;99.90
6098;DHT22;3077;50.922;6.584;2023-01-08T06:20:44;10.80;99.90
6098;DHT22;3077;50.922;6.584;2023-01-08T06:23:09;10.90;1.00
6098;DHT22;3077;50.922;6.584;2023-01-08T06:25:35;11.00;99.90
6098;DHT22;3077;50.922;6.584;2023-01-08T06:28:02;11.00;99.90
6098;DHT22;3077;50.922;6.584;2023-01-08T06:30:28;11.00;99.90
6098;DHT22;3077;50.922;6.584;2023-01-08T06:32:57;10.90;99.90
6098;DHT22;3077;50.922;6.584;2023-01-08T06:35:24;10.00;99.90
6098;DHT22;3077;50.922;6.584;2023-01-08T06:37:50;9.50;1.00
6098;DHT22;3077;50.922;6.584;2023-01-08T06:40:15;9.10;1.00
6098;DHT22;3077;50.922;6.584;2023-01-08T06:42:41;8.80;1.10
6098;DHT22;3077;50.922;6.584;2023-01-08T06:45:08;8.70;19.50
6098;DHT22;3077;50.922;6.584;2023-01-08T06:47:34;8.50;54.70
6098;DHT22;3077;50.922;6.584;2023-01-08T06:50:00;8.30;95.30
6098;DHT22;3077;50.922;6.584;2023-01-08T06:52:26;8.30;99.90
6098;DHT22;3077;50.922;6.584;2023-01-08T06:54:51;8.30;99.90
6098;DHT22;3077;50.922;6.584;2023-01-08T06:57:17;8.30;99.90
6098;DHT22;3077;50.922;6.584;2023-01-08T06:59:42;8.30;99.90
6098;DHT22;3077;50.922;6.584;2023-01-08T07:02:15;8.30;99.90
6098;DHT22;3077;50.922;6.584;2023-01-08T07:04:41;8.20;99.90
6098;DHT22;3077;50.922;6.584;2023-01-08T07:07:07;8.20;99.90
6098;DHT22;3077;50.922;6.584;2023-01-08T07:09:33;8.20;99.90
6098;DHT22;3077;50.922;6.584;2023-01-08T07:11:59;8.20;99.90
6098;DHT22;3077;50.922;6.584;2023-01-08T07:14:25;8.20;99.90
6098;DHT22;3077;50.922;6.584;2023-01-08T07:16:50;8.30;99.90
6098;DHT22;3077;50.922;6.584;2023-01-08T07:19:16;8.40;99.90
6098;DHT22;3077;50.922;6.584;2023-01-08T07:21:42;8.40;99.90
6098;DHT22;3077;50.922;6.584;2023-01-08T07:24:10;8.40;99.90
6098;DHT22;3077;50.922;6.584;2023-01-08T07:26:36;8.50;99.90
6098;DHT22;3077;50.922;6.584;2023-01-08T07:29:03;8.60;99.90
6098;DHT22;3077;50.922;6.584;2023-01-08T07:31:29;8.60;99.90
6098;DHT22;3077;50.922;6.584;2023-01-08T07:33:55;8.70;86.20
6098;DHT22;3077;50.922;6.584;2023-01-08T07:36:20;8.80;42.70
6098;DHT22;3077;50.922;6.584;2023-01-08T07:38:50;8.90;25.80
6098;DHT22;3077;50.922;6.584;2023-01-08T07:41:16;8.90;11.50
6098;DHT22;3077;50.922;6.584;2023-01-08T07:43:42;9.00;2.30
6098;DHT22;3077;50.922;6.584;2023-01-08T07:46:07;9.00;1.00
6098;DHT22;3077;50.922;6.584;2023-01-08T07:48:33;9.10;1.00
6098;DHT22;3077;50.922;6.584;2023-01-08T07:51:04;9.10;1.00
6098;DHT22;3077;50.922;6.584;2023-01-08T07:53:30;9.20;1.00
6098;DHT22;3077;50.922;6.584;2023-01-08T07:56:03;9.20;1.00
6098;DHT22;3077;50.922;6.584;2023-01-08T07:58:30;9.20;1.00
6098;DHT22;3077;50.922;6.584;2023-01-08T08:00:56;9.20;1.00
6098;DHT22;3077;50.922;6.584;2023-01-08T08:03:22;9.30;1.00
6098;DHT22;3077;50.922;6.584;2023-01-08T08:05:47;9.30;1.00
6098;DHT22;3077;50.922;6.584;2023-01-08T08:08:13;9.30;1.00
6098;DHT22;3077;50.922;6.584;2023-01-08T08:10:40;9.30;1.00
6098;DHT22;3077;50.922;6.584;2023-01-08T08:13:06;9.30;1.00
6098;DHT22;3077;50.922;6.584;2023-01-08T08:15:33;9.30;1.00
6098;DHT22;3077;50.922;6.584;2023-01-08T08:18:00;9.30;1.00
6098;DHT22;3077;50.922;6.584;2023-01-08T08:20:26;9.30;1.00
6098;DHT22;3077;50.922;6.584;2023-01-08T08:22:58;9.30;1.00
6098;DHT22;3077;50.922;6.584;2023-01-08T08:25:24;9.30;1.00
6098;DHT22;3077;50.922;6.584;2023-01-08T08:27:49;9.30;1.00
6098;DHT22;3077;50.922;6.584;2023-01-08T08:30:15;9.30;1.00
6098;DHT22;3077;50.922;6.584;2023-01-08T08:32:40;9.30;1.00
6098;DHT22;3077;50.922;6.584;2023-01-08T08:35:06;9.30;1.00
6098;DHT22;3077;50.922;6.584;2023-01-08T08:37:32;9.40;1.00
6098;DHT22;3077;50.922;6.584;2023-01-08T08:39:57;9.30;1.00
6098;DHT22;3077;50.922;6.584;2023-01-08T08:42:23;9.30;1.00
6098;DHT22;3077;50.922;6.584;2023-01-08T08:44:48;9.20;1.00
6098;DHT22;3077;50.922;6.584;2023-01-08T08:47:14;9.20;1.00
6098;DHT22;3077;50.922;6.584;2023-01-08T08:49:40;9.10;1.00
6098;DHT22;3077;50.922;6.584;2023-01-08T08:52:05;9.10;1.00
6098;DHT22;3077;50.922;6.584;2023-01-08T08:54:31;9.00;1.00
6098;DHT22;3077;50.922;6.584;2023-01-08T08:56:57;9.00;1.00
6098;DHT22;3077;50.922;6.584;2023-01-08T08:59:22;8.90;1.00
6098;DHT22;3077;50.922;6.584;2023-01-08T09:01:48;8.90;1.00
6098;DHT22;3077;50.922;6.584;2023-01-08T09:04:13;8.90;1.00
6098;DHT22;3077;50.922;6.584;2023-01-08T09:06:39;9.00;1.00
6098;DHT22;3077;50.922;6.584;2023-01-08T09:09:04;8.90;1.00
6098;DHT22;3077;50.922;6.584;2023-01-08T09:11:30;9.00;1.00
6098;DHT22;3077;50.922;6.584;2023-01-08T09:13:56;9.00;1.00
6098;DHT22;3077;50.922;6.584;2023-01-08T09:16:22;9.00;1.00
6098;DHT22;3077;50.922;6.584;2023-01-08T09:18:47;9.20;1.00
6098;DHT22;3077;50.922;6.584;2023-01-08T09:21:14;9.30;1.00
6098;DHT22;3077;50.922;6.584;2023-01-08T09:23:40;9.50;1.00
6098;DHT22;3077;50.922;6.584;2023-01-08T09:26:06;9.70;1.00
6098;DHT22;3077;50.922;6.584;2023-01-08T09:28:32;9.70;1.00
6098;DHT22;3077;50.922;6.584;2023-01-08T09:31:02;9.80;1.00
6098;DHT22;3077;50.922;6.584;2023-01-08T09:33:28;10.10;1.00
6098;DHT22;3077;50.922;6.584;2023-01-08T09:35:54;9.80;1.00
6098;DHT22;3077;50.922;6.584;2023-01-08T09:38:19;10.00;1.00
6098;DHT22;3077;50.922;6.584;2023-01-08T09:40:55;10.00;1.00
6098;DHT22;3077;50.922;6.584;2023-01-08T09:43:22;10.00;1.00
6098;DHT22;3077;50.922;6.584;2023-01-08T09:45:51;10.20;1.00
6098;DHT22;3077;50.922;6.584;2023-01-08T09:48:24;10.20;1.00
6098;DHT22;3077;50.922;6.584;2023-01-08T09:50:51;10.20;1.00
6098;DHT22;3077;50.922;6.584;2023-01-08T09:53:17;10.40;1.00
6098;DHT22;3077;50.922;6.584;2023-01-08T09:55:45;10.60;99.90
6098;DHT22;3077;50.922;6.584;2023-01-08T09:58:32;10.60;99.90
6098;DHT22;3077;50.922;6.584;2023-01-08T10:01:00;10.60;1.00
6098;DHT22;3077;50.922;6.584;2023-01-08T10:03:30;10.80;1.00
6098;DHT22;3077;50.922;6.584;2023-01-08T10:06:11;10.70;99.90
6098;DHT22;3077;50.922;6.584;2023-01-08T10:08:37;10.80;99.90
6098;DHT22;3077;50.922;6.584;2023-01-08T10:11:04;10.80;99.90
6098;DHT22;3077;50.922;6.584;2023-01-08T10:13:31;11.20;99.90
6098;DHT22;3077;50.922;6.584;2023-01-08T10:15:57;11.00;99.90
6098;DHT22;3077;50.922;6.584;2023-01-08T10:18:25;11.20;95.90
6098;DHT22;3077;50.922;6.584;2023-01-08T10:20:51;11.40;99.90
6098;DHT22;3077;50.922;6.584;2023-01-08T10:23:18;11.30;99.90
6098;DHT22;3077;50.922;6.584;2023-01-08T10:28:26;11.50;1.00
6098;DHT22;3077;50.922;6.584;2023-01-08T10:30:53;11.70;1.00
6098;DHT22;3077;50.922;6.584;2023-01-08T10:33:25;11.90;99.90
6098;DHT22;3077;50.922;6.584;2023-01-08T10:36:02;11.80;99.90
6098;DHT22;3077;50.922;6.584;2023-01-08T10:38:32;11.70;99.90
6098;DHT22;3077;50.922;6.584;2023-01-08T10:41:00;11.70;1.00
6098;DHT22;3077;50.922;6.584;2023-01-08T10:43:33;11.90;99.90
6098;DHT22;3077;50.922;6.584;2023-01-08T10:46:02;12.00;99.90
6098;DHT22;3077;50.922;6.584;2023-01-08T10:48:43;12.10;99.90
6098;DHT22;3077;50.922;6.584;2023-01-08T10:51:20;12.20;10.20
6098;DHT22;3077;50.922;6.584;2023-01-08T10:53:46;12.40;99.90
6098;DHT22;3077;50.922;6.584;2023-01-08T10:56:20;12.60;1.00
6098;DHT22;3077;50.922;6.584;2023-01-08T10:58:48;12.80;99.90
6098;DHT22;3077;50.922;6.584;2023-01-08T11:01:27;12.90;99.90
6098;DHT22;3077;50.922;6.584;2023-01-08T11:03:56;13.00;1.00
6098;DHT22;3077;50.922;6.584;2023-01-08T11:06:26;13.20;99.90
6098;DHT22;3077;50.922;6.584;2023-01-08T11:08:54;13.20;51.80
6098;DHT22;3077;50.922;6.584;2023-01-08T11:11:22;13.10;1.00
6098;DHT22;3077;50.922;6.584;2023-01-08T11:14:05;12.90;99.90
6098;DHT22;3077;50.922;6.584;2023-01-08T11:16:39;12.70;1.00
6098;DHT22;3077;50.922;6.584;2023-01-08T11:19:16;12.50;1.00
6098;DHT22;3077;50.922;6.584;2023-01-08T11:21:42;12.30;1.00
6098;DHT22;3077;50.922;6.584;2023-01-08T11:24:21;12.20;1.00
6098;DHT22;3077;50.922;6.584;2023-01-08T11:26:51;12.20;99.90
6098;DHT22;3077;50.922;6.584;2023-01-08T11:29:36;12.20;1.00
6098;DHT22;3077;50.922;6.584;2023-01-08T11:37:37;12.60;99.90
6098;DHT22;3077;50.922;6.584;2023-01-08T11:40:12;12.80;55.90
6098;DHT22;3077;50.922;6.584;2023-01-08T11:43:06;13.10;99.90
6098;DHT22;3077;50.922;6.584;2023-01-08T11:48:49;12.70;1.00
6098;DHT22;3077;50.922;6.584;2023-01-08T11:51:24;12.50;1.00
6098;DHT22;3077;50.922;6.584;2023-01-08T11:54:13;12.30;1.00
6098;DHT22;3077;50.922;6.584;2023-01-08T11:59:28;12.20;96.10
6098;DHT22;3077;50.922;6.584;2023-01-08T12:02:19;12.20;99.90
6098;DHT22;3077;50.922;6.584;2023-01-08T12:07:41;12.50;1.00
6098;DHT22;3077;50.922;6.584;2023-01-08T12:29:25;13.30;99.90
6098;DHT22;3077;50.922;6.584;2023-01-08T12:40:06;12.70;99.90
6098;DHT22;3077;50.922;6.584;2023-01-08T12:42:40;12.70;99.90
6098;DHT22;3077;50.922;6.584;2023-01-08T12:45:15;12.70;99.90
6098;DHT22;3077;50.922;6.584;2023-01-08T12:47:42;12.90;99.90
6098;DHT22;3077;50.922;6.584;2023-01-08T12:53:03;12.80;48.80
6098;DHT22;3077;50.922;6.584;2023-01-08T12:55:51;13.70;68.70
6098;DHT22;3077;50.922;6.584;2023-01-08T12:58:57;14.20;1.00
6098;DHT22;3077;50.922;6.584;2023-01-08T13:01:34;13.80;1.00
6098;DHT22;3077;50.922;6.584;2023-01-08T13:04:02;13.40;1.00
6098;DHT22;3077;50.922;6.584;2023-01-08T13:06:29;13.30;1.00
6098;DHT22;3077;50.922;6.584;2023-01-08T13:08:57;13.30;1.00
6098;DHT22;3077;50.922;6.584;2023-01-08T13:11:34;13.20;1.00
6098;DHT22;3077;50.922;6.584;2023-01-08T13:14:08;13.00;1.00
6098;DHT22;3077;50.922;6.584;2023-01-08T13:16:40;12.80;1.00
6098;DHT22;3077;50.922;6.584;2023-01-08T13:19:24;12.70;1.00
6098;DHT22;3077;50.922;6.584;2023-01-08T13:21:56;12.70;1.00
6098;DHT22;3077;50.922;6.584;2023-01-08T13:26:56;12.60;1.00
6098;DHT22;3077;50.922;6.584;2023-01-08T13:29:41;12.60;1.00
6098;DHT22;3077;50.922;6.584;2023-01-08T13:32:40;12.70;1.00
6098;DHT22;3077;50.922;6.584;2023-01-08T13:37:48;12.90;1.00
6098;DHT22;3077;50.922;6.584;2023-01-08T13:49:19;15.60;99.90
6098;DHT22;3077;50.922;6.584;2023-01-08T13:53:53;15.00;99.90
6098;DHT22;3077;50.922;6.584;2023-01-08T13:56:20;14.50;99.90
6098;DHT22;3077;50.922;6.584;2023-01-08T13:58:52;14.20;99.90
6098;DHT22;3077;50.922;6.584;2023-01-08T14:01:19;13.90;99.90
6098;DHT22;3077;50.922;6.584;2023-01-08T14:03:46;14.30;99.90
6098;DHT22;3077;50.922;6.584;2023-01-08T14:06:22;14.40;99.90
6098;DHT22;3077;50.922;6.584;2023-01-08T14:11:20;14.20;99.90
6098;DHT22;3077;50.922;6.584;2023-01-08T14:13:47;13.70;99.90
6098;DHT22;3077;50.922;6.584;2023-01-08T14:16:14;13.30;99.90
6098;DHT22;3077;50.922;6.584;2023-01-08T14:18:41;13.00;99.90
6098;DHT22;3077;50.922;6.584;2023-01-08T14:21:07;12.70;1.00
6098;DHT22;3077;50.922;6.584;2023-01-08T14:23:39;12.70;99.90
6098;DHT22;3077;50.922;6.584;2023-01-08T14:26:06;12.50;1.00
6098;DHT22;3077;50.922;6.584;2023-01-08T14:28:33;12.50;1.00
6098;DHT22;3077;50.922;6.584;2023-01-08T14:30:59;12.40;1.00
6098;DHT22;3077;50.922;6.584;2023-01-08T14:33:32;12.60;99.90
6098;DHT22;3077;50.922;6.584;2023-01-08T14:35:59;12.80;1.00
6098;DHT22;3077;50.922;6.584;2023-01-08T14:38:25;12.70;1.00
6098;DHT22;3077;50.922;6.584;2023-01-08T14:40:59;12.50;1.00
6098;DHT22;3077;50.922;6.584;2023-01-08T14:43:27;12.60;99.90
6098;DHT22;3077;50.922;6.584;2023-01-08T14:45:53;12.50;92.80
6098;DHT22;3077;50.922;6.584;2023-01-08T14:48:33;12.70;99.90
6098;DHT22;3077;50.922;6.584;2023-01-08T14:51:06;12.90;1.00
6098;DHT22;3077;50.922;6.584;2023-01-08T14:53:35;12.20;99.90
6098;DHT22;3077;50.922;6.584;2023-01-08T14:56:03;12.40;11.00
6098;DHT22;3077;50.922;6.584;2023-01-08T14:58:36;12.10;30.30
6098;DHT22;3077;50.922;6.584;2023-01-08T15:01:07;11.90;99.90
6098;DHT22;3077;50.922;6.584;2023-01-08T15:03:38;11.90;1.00
6098;DHT22;3077;50.922;6.584;2023-01-08T15:06:05;12.10;99.90
6098;DHT22;3077;50.922;6.584;2023-01-08T15:08:41;12.10;99.90
6098;DHT22;3077;50.922;6.584;2023-01-08T15:11:21;12.20;99.90
6098;DHT22;3077;50.922;6.584;2023-01-08T15:13:48;12.20;99.90
6098;DHT22;3077;50.922;6.584;2023-01-08T15:19:15;12.30;99.90
6098;DHT22;3077;50.922;6.584;2023-01-08T15:21:49;12.40;99.90
6098;DHT22;3077;50.922;6.584;2023-01-08T15:24:32;12.60;43.40
6098;DHT22;3077;50.922;6.584;2023-01-08T15:26:59;12.90;1.00
6098;DHT22;3077;50.922;6.584;2023-01-08T15:29:36;12.90;1.00
6098;DHT22;3077;50.922;6.584;2023-01-08T15:32:20;12.80;1.00
6098;DHT22;3077;50.922;6.584;2023-01-08T15:34:46;12.70;1.00
6098;DHT22;3077;50.922;6.584;2023-01-08T15:37:12;12.30;1.00
6098;DHT22;3077;50.922;6.584;2023-01-08T15:39:39;12.00;66.50
6098;DHT22;3077;50.922;6.584;2023-01-08T15:45:13;11.40;99.90
6098;DHT22;3077;50.922;6.584;2023-01-08T15:47:39;11.10;1.00
6098;DHT22;3077;50.922;6.584;2023-01-08T15:50:06;10.90;1.00
6098;DHT22;3077;50.922;6.584;2023-01-08T15:52:32;10.80;81.40
6098;DHT22;3077;50.922;6.584;2023-01-08T15:54:59;10.80;99.90
6098;DHT22;3077;50.922;6.584;2023-01-08T15:57:26;10.70;99.90
6098;DHT22;3077;50.922;6.584;2023-01-08T15:59:51;10.60;99.90
6098;DHT22;3077;50.922;6.584;2023-01-08T16:02:17;10.50;1.00
6098;DHT22;3077;50.922;6.584;2023-01-08T16:04:43;10.40;1.00
6098;DHT22;3077;50.922;6.584;2023-01-08T16:07:09;10.40;1.00
6098;DHT22;3077;50.922;6.584;2023-01-08T16:09:35;10.40;99.90
6098;DHT22;3077;50.922;6.584;2023-01-08T16:12:00;10.30;99.90
6098;DHT22;3077;50.922;6.584;2023-01-08T16:14:26;10.30;99.90
6098;DHT22;3077;50.922;6.584;2023-01-08T16:16:52;10.30;1.00
6098;DHT22;3077;50.922;6.584;2023-01-08T16:19:17;10.30;1.00
6098;DHT22;3077;50.922;6.584;2023-01-08T16:21:43;10.30;1.00
6098;DHT22;3077;50.922;6.584;2023-01-08T16:24:12;10.20;1.00
6098;DHT22;3077;50.922;6.584;2023-01-08T16:26:38;10.20;99.90
6098;DHT22;3077;50.922;6.584;2023-01-08T16:29:04;10.20;70.30
6098;DHT22;3077;50.922;6.584;2023-01-08T16:31:29;10.30;1.00
6098;DHT22;3077;50.922;6.584;2023-01-08T16:34:00;10.30;1.00
6098;DHT22;3077;50.922;6.584;2023-01-08T16:36:26;10.30;1.00
6098;DHT22;3077;50.922;6.584;2023-01-08T16:38:51;10.30;73.00
6098;DHT22;3077;50.922;6.584;2023-01-08T16:41:17;10.20;99.90
6098;DHT22;3077;50.922;6.584;2023-01-08T16:43:42;10.30;99.90
6098;DHT22;3077;50.922;6.584;2023-01-08T16:46:14;10.10;1.00
6098;DHT22;3077;50.922;6.584;2023-01-08T16:48:42;10.00;99.90
6098;DHT22;3077;50.922;6.584;2023-01-08T16:51:08;10.00;1.00
6098;DHT22;3077;50.922;6.584;2023-01-08T16:53:35;9.60;99.90
6098;DHT22;3077;50.922;6.584;2023-01-08T16:56:04;9.70;99.90
6098;DHT22;3077;50.922;6.584;2023-01-08T16:58:30;9.70;99.90
6098;DHT22;3077;50.922;6.584;2023-01-08T17:00:57;9.60;5.90
6098;DHT22;3077;50.922;6.584;2023-01-08T17:03:23;9.40;1.00
6098;DHT22;3077;50.922;6.584;2023-01-08T17:05:48;9.50;1.00
6098;DHT22;3077;50.922;6.584;2023-01-08T17:08:14;9.50;15.80
6098;DHT22;3077;50.922;6.584;2023-01-08T17:10:42;9.50;99.90
6098;DHT22;3077;50.922;6.584;2023-01-08T17:13:08;9.50;99.90
6098;DHT22;3077;50.922;6.584;2023-01-08T17:15:35;9.40;1.00
6098;DHT22;3077;50.922;6.584;2023-01-08T17:18:01;9.50;1.00
6098;DHT22;3077;50.922;6.584;2023-01-08T17:20:27;9.40;1.00
6098;DHT22;3077;50.922;6.584;2023-01-08T17:22:53;9.40;1.00
6098;DHT22;3077;50.922;6.584;2023-01-08T17:25:18;9.50;1.00
6098;DHT22;3077;50.922;6.584;2023-01-08T17:27:44;9.50;1.00
6098;DHT22;3077;50.922;6.584;2023-01-08T17:30:11;9.50;59.70
6098;DHT22;3077;50.922;6.584;2023-01-08T17:32:38;9.50;96.00
6098;DHT22;3077;50.922;6.584;2023-01-08T17:35:04;9.60;1.00
6098;DHT22;3077;50.922;6.584;2023-01-08T17:37:31;9.60;1.00
6098;DHT22;3077;50.922;6.584;2023-01-08T17:39:57;9.60;99.90
6098;DHT22;3077;50.922;6.584;2023-01-08T17:42:22;9.70;62.70
6098;DHT22;3077;50.922;6.584;2023-01-08T17:44:53;9.60;63.90
6098;DHT22;3077;50.922;6.584;2023-01-08T17:47:20;9.60;99.90
6098;DHT22;3077;50.922;6.584;2023-01-08T17:49:54;9.60;99.90